sensor_id;sensor_type;location;lat;lon;timestamp;temperature;humidity
14182;DHT22;7171;50.936;6.764;2024-02-28T00:01:12;5.20;99.90
14182;DHT22;7171;50.936;6.764;2024-02-28T00:03:39;5.20;99.90
14182;DHT22;7171;50.936;6.764;2024-02-28T00:06:07;5.20;99.90
14182;DHT22;7171;50.936;6.764;2024-02-28T00:08:35;5.20;99.90
14182;DHT22;7171;50.936;6.764;2024-02-28T00:11:02;5.10;99.90
14182;DHT22;7171;50.936;6.764;2024-02-28T00:13:29;5.10;99.90
14182;DHT22;7171;50.936;6.764;2024-02-28T00:15:55;5.20;99.90
14182;DHT22;7171;50.936;6.764;2024-02-28T00:18:22;5.10;99.90
14182;DHT22;7171;50.936;6.764;2024-02-28T00:20:49;5.20;99.90
14182;DHT22;7171;50.936;6.764;2024-02-28T00:23:17;5.20;99.90
14182;DHT22;7171;50.936;6.764;2024-02-28T00:25:44;5.20;99.90
14182;DHT22;7171;50.936;6.764;2024-02-28T00:28:10;5.20;99.90
14182;DHT22;7171;50.936;6.764;2024-02-28T00:30:37;5.30;99.90
14182;DHT22;7171;50.936;6.764;2024-02-28T00:33:04;5.30;99.90
14182;DHT22;7171;50.936;6.764;2024-02-28T00:35:32;5.30;99.90
14182;DHT22;7171;50.936;6.764;2024-02-28T00:37:59;5.30;99.90
14182;DHT22;7171;50.936;6.764;2024-02-28T00:40:27;5.30;99.90
14182;DHT22;7171;50.936;6.764;2024-02-28T00:42:54;5.30;99.90
14182;DHT22;7171;50.936;6.764;2024-02-28T00:45:21;5.30;99.90
14182;DHT22;7171;50.936;6.764;2024-02-28T00:47:48;5.30;99.90
14182;DHT22;7171;50.936;6.764;2024-02-28T00:50:15;5.30;99.90
14182;DHT22;7171;50.936;6.764;2024-02-28T00:52:42;5.30;99.90
14182;DHT22;7171;50.936;6.764;2024-02-28T00:55:08;5.30;99.90
14182;DHT22;7171;50.936;6.764;2024-02-28T00:57:36;5.40;99.90
14182;DHT22;7171;50.936;6.764;2024-02-28T01:00:04;5.40;99.90
14182;DHT22;7171;50.936;6.764;2024-02-28T01:02:32;5.40;99.90
14182;DHT22;7171;50.936;6.764;2024-02-28T01:04:58;5.40;99.90
14182;DHT22;7171;50.936;6.764;2024-02-28T01:07:25;5.40;99.90
14182;DHT22;7171;50.936;6.764;2024-02-28T01:09:52;5.40;99.90
14182;DHT22;7171;50.936;6.764;2024-02-28T01:12:18;5.40;99.90
14182;DHT22;7171;50.936;6.764;2024-02-28T01:14:46;5.40;99.90
14182;DHT22;7171;50.936;6.764;2024-02-28T01:17:13;5.40;99.90
14182;DHT22;7171;50.936;6.764;2024-02-28T01:19:40;5.40;99.90
14182;DHT22;7171;50.936;6.764;2024-02-28T01:22:06;5.30;99.90
14182;DHT22;7171;50.936;6.764;2024-02-28T01:24:34;5.30;99.90
14182;DHT22;7171;50.936;6.764;2024-02-28T01:27:02;5.30;99.90
14182;DHT22;7171;50.936;6.764;2024-02-28T01:29:28;5.30;99.90
14182;DHT22;7171;50.936;6.764;2024-02-28T01:31:56;5.30;99.90
14182;DHT22;7171;50.936;6.764;2024-02-28T01:34:23;5.20;99.90
14182;DHT22;7171;50.936;6.764;2024-02-28T01:36:50;5.20;99.90
14182;DHT22;7171;50.936;6.764;2024-02-28T01:39:16;5.20;99.90
14182;DHT22;7171;50.936;6.764;2024-02-28T01:41:51;5.20;99.90
14182;DHT22;7171;50.936;6.764;2024-02-28T01:44:18;5.20;99.90
14182;DHT22;7171;50.936;6.764;2024-02-28T01:46:45;5.10;99.90
14182;DHT22;7171;50.936;6.764;2024-02-28T01:49:13;5.10;99.90
14182;DHT22;7171;50.936;6.764;2024-02-28T01:51:41;5.10;99.90
14182;DHT22;7171;50.936;6.764;2024-02-28T01:54:08;5.10;99.90
14182;DHT22;7171;50.936;6.764;2024-02-28T01:56:37;5.00;99.90
14182;DHT22;7171;50.936;6.764;2024-02-28T01:59:04;5.00;99.90
14182;DHT22;7171;50.936;6.764;2024-02-28T02:01:31;5.00;99.90
14182;DHT22;7171;50.936;6.764;2024-02-28T02:03:58;5.00;99.90
14182;DHT22;7171;50.936;6.764;2024-02-28T02:06:26;5.00;99.90
14182;DHT22;7171;50.936;6.764;2024-02-28T02:08:53;5.00;99.90
14182;DHT22;7171;50.936;6.764;2024-02-28T02:11:21;5.00;99.90
14182;DHT22;7171;50.936;6.764;2024-02-28T02:13:49;4.90;99.90
14182;DHT22;7171;50.936;6.764;2024-02-28T02:16:16;5.00;99.90
14182;DHT22;7171;50.936;6.764;2024-02-28T02:18:42;5.00;99.90
14182;DHT22;7171;50.936;6.764;2024-02-28T02:21:09;5.00;99.90
14182;DHT22;7171;50.936;6.764;2024-02-28T02:23:39;5.00;99.90
14182;DHT22;7171;50.936;6.764;2024-02-28T02:26:07;5.00;99.90
14182;DHT22;7171;50.936;6.764;2024-02-28T02:28:34;5.00;99.90
14182;DHT22;7171;50.936;6.764;2024-02-28T02:31:00;5.00;99.90
14182;DHT22;7171;50.936;6.764;2024-02-28T02:33:27;5.00;99.90
14182;DHT22;7171;50.936;6.764;2024-02-28T02:35:54;4.90;99.90
14182;DHT22;7171;50.936;6.764;2024-02-28T02:38:21;4.90;99.90
14182;DHT22;7171;50.936;6.764;2024-02-28T02:40:49;4.90;99.90
14182;DHT22;7171;50.936;6.764;2024-02-28T02:43:16;4.90;99.90
14182;DHT22;7171;50.936;6.764;2024-02-28T02:45:43;4.90;99.90
14182;DHT22;7171;50.936;6.764;2024-02-28T02:48:10;5.00;99.90
14182;DHT22;7171;50.936;6.764;2024-02-28T02:50:37;4.90;99.90
14182;DHT22;7171;50.936;6.764;2024-02-28T02:53:04;4.90;99.90
14182;DHT22;7171;50.936;6.764;2024-02-28T02:55:30;4.90;99.90
14182;DHT22;7171;50.936;6.764;2024-02-28T02:57:58;4.90;99.90
14182;DHT22;7171;50.936;6.764;2024-02-28T03:00:25;4.90;99.90
14182;DHT22;7171;50.936;6.764;2024-02-28T03:02:52;4.90;99.90
14182;DHT22;7171;50.936;6.764;2024-02-28T03:05:19;4.80;99.90
14182;DHT22;7171;50.936;6.764;2024-02-28T03:07:45;4.80;99.90
14182;DHT22;7171;50.936;6.764;2024-02-28T03:10:12;4.80;99.90
14182;DHT22;7171;50.936;6.764;2024-02-28T03:12:39;4.80;99.90
14182;DHT22;7171;50.936;6.764;2024-02-28T03:15:08;4.80;99.90
14182;DHT22;7171;50.936;6.764;2024-02-28T03:17:35;4.80;99.90
14182;DHT22;7171;50.936;6.764;2024-02-28T03:20:02;4.90;99.90
14182;DHT22;7171;50.936;6.764;2024-02-28T03:22:28;4.90;99.90
14182;DHT22;7171;50.936;6.764;2024-02-28T03:24:55;5.00;99.90
14182;DHT22;7171;50.936;6.764;2024-02-28T03:27:22;5.00;99.90
14182;DHT22;7171;50.936;6.764;2024-02-28T03:29:48;5.00;99.90
14182;DHT22;7171;50.936;6.764;2024-02-28T03:32:16;5.00;99.90
14182;DHT22;7171;50.936;6.764;2024-02-28T03:34:43;5.00;99.90
14182;DHT22;7171;50.936;6.764;2024-02-28T03:37:10;5.10;99.90
14182;DHT22;7171;50.936;6.764;2024-02-28T03:39:36;5.10;99.90
14182;DHT22;7171;50.936;6.764;2024-02-28T03:42:03;5.10;99.90
14182;DHT22;7171;50.936;6.764;2024-02-28T03:44:30;5.20;99.90
14182;DHT22;7171;50.936;6.764;2024-02-28T03:46:56;5.20;99.90
14182;DHT22;7171;50.936;6.764;2024-02-28T03:49:24;5.20;99.90
14182;DHT22;7171;50.936;6.764;2024-02-28T03:51:51;5.20;99.90
14182;DHT22;7171;50.936;6.764;2024-02-28T03:54:18;5.30;99.90
14182;DHT22;7171;50.936;6.764;2024-02-28T03:56:44;5.30;99.90
14182;DHT22;7171;50.936;6.764;2024-02-28T03:59:11;5.30;99.90
14182;DHT22;7171;50.936;6.764;2024-02-28T04:01:38;5.30;99.90
14182;DHT22;7171;50.936;6.764;2024-02-28T04:04:05;5.40;99.90
14182;DHT22;7171;50.936;6.764;2024-02-28T04:06:34;5.40;99.90
14182;DHT22;7171;50.936;6.764;2024-02-28T04:09:00;5.40;99.90
14182;DHT22;7171;50.936;6.764;2024-02-28T04:11:28;5.40;99.90
14182;DHT22;7171;50.936;6.764;2024-02-28T04:13:55;5.50;99.90
14182;DHT22;7171;50.936;6.764;2024-02-28T04:16:21;5.50;99.90
14182;DHT22;7171;50.936;6.764;2024-02-28T04:18:48;5.50;99.90
14182;DHT22;7171;50.936;6.764;2024-02-28T04:21:15;5.50;99.90
14182;DHT22;7171;50.936;6.764;2024-02-28T04:23:43;5.50;99.90
14182;DHT22;7171;50.936;6.764;2024-02-28T04:26:10;5.50;99.90
14182;DHT22;7171;50.936;6.764;2024-02-28T04:28:36;5.50;99.90
14182;DHT22;7171;50.936;6.764;2024-02-28T04:31:03;5.80;99.90
14182;DHT22;7171;50.936;6.764;2024-02-28T04:33:30;5.50;99.90
14182;DHT22;7171;50.936;6.764;2024-02-28T04:35:56;5.50;99.90
14182;DHT22;7171;50.936;6.764;2024-02-28T04:38:23;5.90;99.90
14182;DHT22;7171;50.936;6.764;2024-02-28T04:40:51;5.40;99.90
14182;DHT22;7171;50.936;6.764;2024-02-28T04:43:18;5.40;99.90
14182;DHT22;7171;50.936;6.764;2024-02-28T04:45:44;5.40;99.90
14182;DHT22;7171;50.936;6.764;2024-02-28T04:48:11;5.40;99.90
14182;DHT22;7171;50.936;6.764;2024-02-28T04:50:38;5.40;99.90
14182;DHT22;7171;50.936;6.764;2024-02-28T04:53:05;5.40;99.90
14182;DHT22;7171;50.936;6.764;2024-02-28T04:55:31;5.40;99.90
14182;DHT22;7171;50.936;6.764;2024-02-28T04:57:59;5.40;99.90
14182;DHT22;7171;50.936;6.764;2024-02-28T05:00:26;5.30;99.90
14182;DHT22;7171;50.936;6.764;2024-02-28T05:02:53;5.30;99.90
14182;DHT22;7171;50.936;6.764;2024-02-28T05:05:19;5.30;99.90
14182;DHT22;7171;50.936;6.764;2024-02-28T05:07:46;5.20;99.90
14182;DHT22;7171;50.936;6.764;2024-02-28T05:10:13;5.20;99.90
14182;DHT22;7171;50.936;6.764;2024-02-28T05:12:39;5.10;99.90
14182;DHT22;7171;50.936;6.764;2024-02-28T05:15:08;5.10;99.90
14182;DHT22;7171;50.936;6.764;2024-02-28T05:17:35;5.10;99.90
14182;DHT22;7171;50.936;6.764;2024-02-28T05:20:01;5.10;99.90
14182;DHT22;7171;50.936;6.764;2024-02-28T05:22:28;5.00;99.90
14182;DHT22;7171;50.936;6.764;2024-02-28T05:24:56;5.00;99.90
14182;DHT22;7171;50.936;6.764;2024-02-28T05:27:22;5.00;99.90
14182;DHT22;7171;50.936;6.764;2024-02-28T05:29:49;5.00;99.90
14182;DHT22;7171;50.936;6.764;2024-02-28T05:32:17;5.00;99.90
14182;DHT22;7171;50.936;6.764;2024-02-28T05:34:45;5.00;99.90
14182;DHT22;7171;50.936;6.764;2024-02-28T05:37:12;5.00;99.90
14182;DHT22;7171;50.936;6.764;2024-02-28T05:39:39;4.90;99.90
14182;DHT22;7171;50.936;6.764;2024-02-28T05:42:05;4.90;99.90
14182;DHT22;7171;50.936;6.764;2024-02-28T05:44:33;5.00;99.90
14182;DHT22;7171;50.936;6.764;2024-02-28T05:46:59;5.00;99.90
14182;DHT22;7171;50.936;6.764;2024-02-28T05:49:28;5.00;99.90
14182;DHT22;7171;50.936;6.764;2024-02-28T05:51:54;5.00;99.90
14182;DHT22;7171;50.936;6.764;2024-02-28T05:54:21;5.00;99.90
14182;DHT22;7171;50.936;6.764;2024-02-28T05:56:48;5.10;99.90
14182;DHT22;7171;50.936;6.764;2024-02-28T05:59:14;5.10;99.90
14182;DHT22;7171;50.936;6.764;2024-02-28T06:01:41;5.10;99.90
14182;DHT22;7171;50.936;6.764;2024-02-28T06:04:08;5.10;99.90
14182;DHT22;7171;50.936;6.764;2024-02-28T06:06:36;5.20;99.90
14182;DHT22;7171;50.936;6.764;2024-02-28T06:09:03;5.20;99.90
14182;DHT22;7171;50.936;6.764;2024-02-28T06:11:29;5.20;99.90
14182;DHT22;7171;50.936;6.764;2024-02-28T06:13:56;5.20;99.90
14182;DHT22;7171;50.936;6.764;2024-02-28T06:16:23;5.20;99.90
14182;DHT22;7171;50.936;6.764;2024-02-28T06:18:50;5.20;99.90
14182;DHT22;7171;50.936;6.764;2024-02-28T06:21:16;5.30;99.90
14182;DHT22;7171;50.936;6.764;2024-02-28T06:23:44;5.30;99.90
14182;DHT22;7171;50.936;6.764;2024-02-28T06:26:11;5.30;99.90
14182;DHT22;7171;50.936;6.764;2024-02-28T06:28:42;5.30;99.90
14182;DHT22;7171;50.936;6.764;2024-02-28T06:31:17;5.30;99.90
14182;DHT22;7171;50.936;6.764;2024-02-28T06:33:45;5.30;99.90
14182;DHT22;7171;50.936;6.764;2024-02-28T06:36:12;5.30;99.90
14182;DHT22;7171;50.936;6.764;2024-02-28T06:38:38;5.30;99.90
14182;DHT22;7171;50.936;6.764;2024-02-28T06:41:06;5.30;99.90
14182;DHT22;7171;50.936;6.764;2024-02-28T06:43:33;5.30;99.90
14182;DHT22;7171;50.936;6.764;2024-02-28T06:46:01;5.30;99.90
14182;DHT22;7171;50.936;6.764;2024-02-28T06:48:27;5.30;99.90
14182;DHT22;7171;50.936;6.764;2024-02-28T06:50:54;5.40;99.90
14182;DHT22;7171;50.936;6.764;2024-02-28T06:53:20;5.40;99.90
14182;DHT22;7171;50.936;6.764;2024-02-28T06:55:47;5.40;99.90
14182;DHT22;7171;50.936;6.764;2024-02-28T06:58:16;5.40;99.90
14182;DHT22;7171;50.936;6.764;2024-02-28T07:00:42;5.40;99.90
14182;DHT22;7171;50.936;6.764;2024-02-28T07:03:09;5.50;99.90
14182;DHT22;7171;50.936;6.764;2024-02-28T07:05:36;5.50;99.90
14182;DHT22;7171;50.936;6.764;2024-02-28T07:08:03;5.50;99.90
14182;DHT22;7171;50.936;6.764;2024-02-28T07:10:30;5.50;99.90
14182;DHT22;7171;50.936;6.764;2024-02-28T07:12:57;5.50;99.90
14182;DHT22;7171;50.936;6.764;2024-02-28T07:15:25;5.60;99.90
14182;DHT22;7171;50.936;6.764;2024-02-28T07:17:51;5.60;99.90
14182;DHT22;7171;50.936;6.764;2024-02-28T07:20:18;5.60;99.90
14182;DHT22;7171;50.936;6.764;2024-02-28T07:22:46;5.60;99.90
14182;DHT22;7171;50.936;6.764;2024-02-28T07:25:13;5.60;99.90
14182;DHT22;7171;50.936;6.764;2024-02-28T07:27:40;5.70;99.90
14182;DHT22;7171;50.936;6.764;2024-02-28T07:30:07;5.70;99.90
14182;DHT22;7171;50.936;6.764;2024-02-28T07:32:35;5.70;99.90
14182;DHT22;7171;50.936;6.764;2024-02-28T07:35:02;5.70;99.90
14182;DHT22;7171;50.936;6.764;2024-02-28T07:37:29;5.70;99.90
14182;DHT22;7171;50.936;6.764;2024-02-28T07:39:56;5.70;99.90
14182;DHT22;7171;50.936;6.764;2024-02-28T07:42:22;5.70;99.90
14182;DHT22;7171;50.936;6.764;2024-02-28T07:44:49;5.80;99.90
14182;DHT22;7171;50.936;6.764;2024-02-28T07:47:18;5.80;99.90
14182;DHT22;7171;50.936;6.764;2024-02-28T07:49:46;5.80;99.90
14182;DHT22;7171;50.936;6.764;2024-02-28T07:52:14;5.80;99.90
14182;DHT22;7171;50.936;6.764;2024-02-28T07:54:41;5.80;99.90
14182;DHT22;7171;50.936;6.764;2024-02-28T07:57:08;5.80;99.90
14182;DHT22;7171;50.936;6.764;2024-02-28T07:59:39;5.90;99.90
14182;DHT22;7171;50.936;6.764;2024-02-28T08:02:06;5.90;99.90
14182;DHT22;7171;50.936;6.764;2024-02-28T08:04:32;5.90;99.90
14182;DHT22;7171;50.936;6.764;2024-02-28T08:07:01;6.00;99.90
14182;DHT22;7171;50.936;6.764;2024-02-28T08:09:28;6.00;99.90
14182;DHT22;7171;50.936;6.764;2024-02-28T08:11:55;6.00;99.90
14182;DHT22;7171;50.936;6.764;2024-02-28T08:14:23;6.00;99.90
14182;DHT22;7171;50.936;6.764;2024-02-28T08:16:50;6.00;99.90
14182;DHT22;7171;50.936;6.764;2024-02-28T08:19:16;6.10;99.90
14182;DHT22;7171;50.936;6.764;2024-02-28T08:21:43;6.10;99.90
14182;DHT22;7171;50.936;6.764;2024-02-28T08:24:12;6.20;99.90
14182;DHT22;7171;50.936;6.764;2024-02-28T08:26:39;6.20;99.90
14182;DHT22;7171;50.936;6.764;2024-02-28T08:29:06;6.20;99.90
14182;DHT22;7171;50.936;6.764;2024-02-28T08:31:33;6.30;99.90
14182;DHT22;7171;50.936;6.764;2024-02-28T08:34:00;6.30;99.90
14182;DHT22;7171;50.936;6.764;2024-02-28T08:36:29;6.30;99.90
14182;DHT22;7171;50.936;6.764;2024-02-28T08:38:55;6.30;99.90
14182;DHT22;7171;50.936;6.764;2024-02-28T08:41:23;6.40;99.90
14182;DHT22;7171;50.936;6.764;2024-02-28T08:43:50;6.40;99.90
14182;DHT22;7171;50.936;6.764;2024-02-28T08:46:17;6.40;99.90
14182;DHT22;7171;50.936;6.764;2024-02-28T08:48:44;6.50;99.90
14182;DHT22;7171;50.936;6.764;2024-02-28T08:51:10;6.50;99.90
14182;DHT22;7171;50.936;6.764;2024-02-28T08:53:37;6.60;99.90
14182;DHT22;7171;50.936;6.764;2024-02-28T08:56:05;6.60;99.90
14182;DHT22;7171;50.936;6.764;2024-02-28T08:58:33;6.60;99.90
14182;DHT22;7171;50.936;6.764;2024-02-28T09:01:00;6.70;99.90
14182;DHT22;7171;50.936;6.764;2024-02-28T09:03:26;6.70;99.90
14182;DHT22;7171;50.936;6.764;2024-02-28T09:05:53;6.70;99.90
14182;DHT22;7171;50.936;6.764;2024-02-28T09:08:20;6.80;99.90
14182;DHT22;7171;50.936;6.764;2024-02-28T09:10:46;6.80;99.90
14182;DHT22;7171;50.936;6.764;2024-02-28T09:13:13;6.80;99.90
14182;DHT22;7171;50.936;6.764;2024-02-28T09:15:41;6.90;99.90
14182;DHT22;7171;50.936;6.764;2024-02-28T09:18:08;6.90;99.90
14182;DHT22;7171;50.936;6.764;2024-02-28T09:20:35;7.80;99.90
14182;DHT22;7171;50.936;6.764;2024-02-28T09:23:02;6.90;99.90
14182;DHT22;7171;50.936;6.764;2024-02-28T09:25:29;7.00;99.90
14182;DHT22;7171;50.936;6.764;2024-02-28T09:27:58;7.00;99.90
14182;DHT22;7171;50.936;6.764;2024-02-28T09:30:25;7.10;99.90
14182;DHT22;7171;50.936;6.764;2024-02-28T09:32:53;7.10;99.90
14182;DHT22;7171;50.936;6.764;2024-02-28T09:35:20;7.20;99.90
14182;DHT22;7171;50.936;6.764;2024-02-28T09:37:47;7.20;99.90
14182;DHT22;7171;50.936;6.764;2024-02-28T09:40:14;7.20;99.90
14182;DHT22;7171;50.936;6.764;2024-02-28T09:42:41;7.20;99.90
14182;DHT22;7171;50.936;6.764;2024-02-28T09:45:10;7.30;99.90
14182;DHT22;7171;50.936;6.764;2024-02-28T09:47:39;7.30;99.90
14182;DHT22;7171;50.936;6.764;2024-02-28T09:50:07;7.30;99.90
14182;DHT22;7171;50.936;6.764;2024-02-28T09:52:35;7.30;99.90
14182;DHT22;7171;50.936;6.764;2024-02-28T09:55:02;7.40;99.90
14182;DHT22;7171;50.936;6.764;2024-02-28T09:57:30;7.40;99.90
14182;DHT22;7171;50.936;6.764;2024-02-28T09:59:59;7.40;99.90
14182;DHT22;7171;50.936;6.764;2024-02-28T10:02:28;7.50;99.90
14182;DHT22;7171;50.936;6.764;2024-02-28T10:04:56;7.50;99.90
14182;DHT22;7171;50.936;6.764;2024-02-28T10:07:25;7.60;99.90
14182;DHT22;7171;50.936;6.764;2024-02-28T10:09:52;7.60;99.90
14182;DHT22;7171;50.936;6.764;2024-02-28T10:12:20;7.70;99.90
14182;DHT22;7171;50.936;6.764;2024-02-28T10:14:49;7.70;99.90
14182;DHT22;7171;50.936;6.764;2024-02-28T10:17:16;7.80;99.90
14182;DHT22;7171;50.936;6.764;2024-02-28T10:19:43;7.90;99.90
14182;DHT22;7171;50.936;6.764;2024-02-28T10:22:09;7.90;99.90
14182;DHT22;7171;50.936;6.764;2024-02-28T10:24:37;8.00;99.90
14182;DHT22;7171;50.936;6.764;2024-02-28T10:27:04;8.10;99.90
14182;DHT22;7171;50.936;6.764;2024-02-28T10:29:31;8.20;99.90
14182;DHT22;7171;50.936;6.764;2024-02-28T10:31:59;8.30;99.90
14182;DHT22;7171;50.936;6.764;2024-02-28T10:34:25;8.30;99.90
14182;DHT22;7171;50.936;6.764;2024-02-28T10:36:52;8.50;99.90
14182;DHT22;7171;50.936;6.764;2024-02-28T10:39:19;8.40;99.90
14182;DHT22;7171;50.936;6.764;2024-02-28T10:41:50;8.50;99.90
14182;DHT22;7171;50.936;6.764;2024-02-28T10:44:20;8.60;99.90
14182;DHT22;7171;50.936;6.764;2024-02-28T10:46:49;8.70;99.90
14182;DHT22;7171;50.936;6.764;2024-02-28T10:49:16;8.60;99.90
14182;DHT22;7171;50.936;6.764;2024-02-28T10:51:45;8.80;99.90
14182;DHT22;7171;50.936;6.764;2024-02-28T10:54:13;8.90;99.90
14182;DHT22;7171;50.936;6.764;2024-02-28T10:56:40;9.10;99.90
14182;DHT22;7171;50.936;6.764;2024-02-28T10:59:09;8.90;99.90
14182;DHT22;7171;50.936;6.764;2024-02-28T11:01:37;9.00;99.90
14182;DHT22;7171;50.936;6.764;2024-02-28T11:04:07;9.10;99.90
14182;DHT22;7171;50.936;6.764;2024-02-28T11:09:03;9.20;99.90
14182;DHT22;7171;50.936;6.764;2024-02-28T11:11:30;9.20;99.90
14182;DHT22;7171;50.936;6.764;2024-02-28T11:13:58;9.30;99.90
14182;DHT22;7171;50.936;6.764;2024-02-28T11:16:28;9.30;99.90
14182;DHT22;7171;50.936;6.764;2024-02-28T11:18:55;9.40;99.90
14182;DHT22;7171;50.936;6.764;2024-02-28T11:21:25;9.40;99.90
14182;DHT22;7171;50.936;6.764;2024-02-28T11:23:52;9.50;99.90
14182;DHT22;7171;50.936;6.764;2024-02-28T11:26:19;9.50;99.90
14182;DHT22;7171;50.936;6.764;2024-02-28T11:28:47;9.60;99.90
14182;DHT22;7171;50.936;6.764;2024-02-28T11:31:14;9.60;99.90
14182;DHT22;7171;50.936;6.764;2024-02-28T11:33:42;9.70;99.90
14182;DHT22;7171;50.936;6.764;2024-02-28T11:36:11;9.80;99.90
14182;DHT22;7171;50.936;6.764;2024-02-28T11:38:38;9.80;99.90
14182;DHT22;7171;50.936;6.764;2024-02-28T11:41:05;9.80;99.90
14182;DHT22;7171;50.936;6.764;2024-02-28T11:43:32;9.90;99.90
14182;DHT22;7171;50.936;6.764;2024-02-28T11:46:00;9.90;99.90
14182;DHT22;7171;50.936;6.764;2024-02-28T11:48:27;10.00;99.90
14182;DHT22;7171;50.936;6.764;2024-02-28T11:50:56;10.00;99.90
14182;DHT22;7171;50.936;6.764;2024-02-28T11:53:24;10.10;99.90
14182;DHT22;7171;50.936;6.764;2024-02-28T11:55:52;10.10;99.90
14182;DHT22;7171;50.936;6.764;2024-02-28T11:58:19;10.20;99.90
14182;DHT22;7171;50.936;6.764;2024-02-28T12:00:47;10.20;99.90
14182;DHT22;7171;50.936;6.764;2024-02-28T12:03:14;10.30;99.90
14182;DHT22;7171;50.936;6.764;2024-02-28T12:05:43;10.30;99.90
14182;DHT22;7171;50.936;6.764;2024-02-28T12:08:11;10.40;99.90
14182;DHT22;7171;50.936;6.764;2024-02-28T12:10:38;10.50;99.90
14182;DHT22;7171;50.936;6.764;2024-02-28T12:13:05;10.50;99.90
14182;DHT22;7171;50.936;6.764;2024-02-28T12:15:33;10.60;99.90
14182;DHT22;7171;50.936;6.764;2024-02-28T12:18:00;10.60;99.90
14182;DHT22;7171;50.936;6.764;2024-02-28T12:20:26;10.60;99.90
14182;DHT22;7171;50.936;6.764;2024-02-28T12:22:53;10.70;99.90
14182;DHT22;7171;50.936;6.764;2024-02-28T12:25:21;10.70;99.90
14182;DHT22;7171;50.936;6.764;2024-02-28T12:27:48;10.70;99.90
14182;DHT22;7171;50.936;6.764;2024-02-28T12:30:14;10.70;99.90
14182;DHT22;7171;50.936;6.764;2024-02-28T12:32:41;10.80;99.90
14182;DHT22;7171;50.936;6.764;2024-02-28T12:35:08;10.80;99.90
14182;DHT22;7171;50.936;6.764;2024-02-28T12:37:35;10.80;99.90
14182;DHT22;7171;50.936;6.764;2024-02-28T12:40:02;10.80;99.90
14182;DHT22;7171;50.936;6.764;2024-02-28T12:42:31;10.80;99.90
14182;DHT22;7171;50.936;6.764;2024-02-28T12:44:58;10.90;99.90
14182;DHT22;7171;50.936;6.764;2024-02-28T12:47:25;10.90;99.90
14182;DHT22;7171;50.936;6.764;2024-02-28T12:49:52;10.90;99.90
14182;DHT22;7171;50.936;6.764;2024-02-28T12:52:18;11.00;99.90
14182;DHT22;7171;50.936;6.764;2024-02-28T12:54:45;11.00;99.90
14182;DHT22;7171;50.936;6.764;2024-02-28T12:57:12;11.10;99.90
14182;DHT22;7171;50.936;6.764;2024-02-28T12:59:43;11.10;99.90
14182;DHT22;7171;50.936;6.764;2024-02-28T13:02:10;11.10;99.90
14182;DHT22;7171;50.936;6.764;2024-02-28T13:04:37;11.10;99.90
14182;DHT22;7171;50.936;6.764;2024-02-28T13:07:04;11.20;99.90
14182;DHT22;7171;50.936;6.764;2024-02-28T13:09:31;11.30;99.90
14182;DHT22;7171;50.936;6.764;2024-02-28T13:11:58;11.30;99.90
14182;DHT22;7171;50.936;6.764;2024-02-28T13:14:24;11.40;99.90
14182;DHT22;7171;50.936;6.764;2024-02-28T13:16:52;11.40;99.90
14182;DHT22;7171;50.936;6.764;2024-02-28T13:19:20;11.20;99.90
14182;DHT22;7171;50.936;6.764;2024-02-28T13:21:46;11.50;99.90
14182;DHT22;7171;50.936;6.764;2024-02-28T13:24:13;11.50;99.90
14182;DHT22;7171;50.936;6.764;2024-02-28T13:26:42;11.80;99.90
14182;DHT22;7171;50.936;6.764;2024-02-28T13:29:08;11.60;99.90
14182;DHT22;7171;50.936;6.764;2024-02-28T13:31:37;11.40;99.90
14182;DHT22;7171;50.936;6.764;2024-02-28T13:34:05;12.10;99.90
14182;DHT22;7171;50.936;6.764;2024-02-28T13:36:32;11.60;99.90
14182;DHT22;7171;50.936;6.764;2024-02-28T13:39:02;11.70;99.90
14182;DHT22;7171;50.936;6.764;2024-02-28T13:41:29;11.70;99.90
14182;DHT22;7171;50.936;6.764;2024-02-28T13:43:56;12.00;99.90
14182;DHT22;7171;50.936;6.764;2024-02-28T13:46:22;11.80;99.90
14182;DHT22;7171;50.936;6.764;2024-02-28T13:48:49;12.70;99.90
14182;DHT22;7171;50.936;6.764;2024-02-28T13:51:17;11.80;99.90
14182;DHT22;7171;50.936;6.764;2024-02-28T13:53:44;11.80;99.90
14182;DHT22;7171;50.936;6.764;2024-02-28T13:56:10;11.80;99.90
14182;DHT22;7171;50.936;6.764;2024-02-28T13:58:37;11.80;99.90
14182;DHT22;7171;50.936;6.764;2024-02-28T14:01:04;11.80;99.90
14182;DHT22;7171;50.936;6.764;2024-02-28T14:03:32;11.80;99.90
14182;DHT22;7171;50.936;6.764;2024-02-28T14:05:58;11.80;99.90
14182;DHT22;7171;50.936;6.764;2024-02-28T14:08:26;11.80;99.90
14182;DHT22;7171;50.936;6.764;2024-02-28T14:10:53;11.80;99.90
14182;DHT22;7171;50.936;6.764;2024-02-28T14:13:20;11.90;99.90
14182;DHT22;7171;50.936;6.764;2024-02-28T14:15:47;11.90;99.90
14182;DHT22;7171;50.936;6.764;2024-02-28T14:18:16;11.90;99.90
14182;DHT22;7171;50.936;6.764;2024-02-28T14:20:43;12.00;99.90
14182;DHT22;7171;50.936;6.764;2024-02-28T14:23:10;12.00;99.90
14182;DHT22;7171;50.936;6.764;2024-02-28T14:25:38;12.00;99.90
14182;DHT22;7171;50.936;6.764;2024-02-28T14:28:05;12.10;99.90
14182;DHT22;7171;50.936;6.764;2024-02-28T14:30:32;12.10;99.90
14182;DHT22;7171;50.936;6.764;2024-02-28T14:32:59;12.10;99.90
14182;DHT22;7171;50.936;6.764;2024-02-28T14:35:26;12.10;99.90
14182;DHT22;7171;50.936;6.764;2024-02-28T14:37:52;12.10;99.90
14182;DHT22;7171;50.936;6.764;2024-02-28T14:40:20;12.20;99.90
14182;DHT22;7171;50.936;6.764;2024-02-28T14:42:48;12.20;99.90
14182;DHT22;7171;50.936;6.764;2024-02-28T14:45:14;12.20;99.90
14182;DHT22;7171;50.936;6.764;2024-02-28T14:47:41;12.20;99.90
14182;DHT22;7171;50.936;6.764;2024-02-28T14:50:09;12.20;99.90
14182;DHT22;7171;50.936;6.764;2024-02-28T14:52:36;12.20;99.90
14182;DHT22;7171;50.936;6.764;2024-02-28T14:55:04;12.10;99.90
14182;DHT22;7171;50.936;6.764;2024-02-28T14:57:31;12.10;99.90
14182;DHT22;7171;50.936;6.764;2024-02-28T14:59:59;12.10;99.90
14182;DHT22;7171;50.936;6.764;2024-02-28T15:02:26;12.20;99.90
14182;DHT22;7171;50.936;6.764;2024-02-28T15:04:53;12.20;99.90
14182;DHT22;7171;50.936;6.764;2024-02-28T15:07:20;12.20;99.90
14182;DHT22;7171;50.936;6.764;2024-02-28T15:09:46;12.20;99.90
14182;DHT22;7171;50.936;6.764;2024-02-28T15:12:13;12.20;99.90
14182;DHT22;7171;50.936;6.764;2024-02-28T15:14:41;12.30;99.90
14182;DHT22;7171;50.936;6.764;2024-02-28T15:17:09;12.30;99.90
14182;DHT22;7171;50.936;6.764;2024-02-28T15:19:36;12.30;99.90
14182;DHT22;7171;50.936;6.764;2024-02-28T15:22:03;12.30;99.90
14182;DHT22;7171;50.936;6.764;2024-02-28T15:24:30;12.40;99.90
14182;DHT22;7171;50.936;6.764;2024-02-28T15:26:57;12.40;99.90
14182;DHT22;7171;50.936;6.764;2024-02-28T15:29:24;12.40;99.90
14182;DHT22;7171;50.936;6.764;2024-02-28T15:31:53;12.40;99.90
14182;DHT22;7171;50.936;6.764;2024-02-28T15:34:21;12.40;99.90
14182;DHT22;7171;50.936;6.764;2024-02-28T15:36:47;12.40;99.90
14182;DHT22;7171;50.936;6.764;2024-02-28T15:39:14;12.40;99.90
14182;DHT22;7171;50.936;6.764;2024-02-28T15:41:41;12.40;99.90
14182;DHT22;7171;50.936;6.764;2024-02-28T15:44:08;12.40;99.90
14182;DHT22;7171;50.936;6.764;2024-02-28T15:46:35;12.40;99.90
14182;DHT22;7171;50.936;6.764;2024-02-28T15:49:03;12.40;99.90
14182;DHT22;7171;50.936;6.764;2024-02-28T15:51:31;12.40;99.90
14182;DHT22;7171;50.936;6.764;2024-02-28T15:53:58;12.40;99.90
14182;DHT22;7171;50.936;6.764;2024-02-28T15:56:25;12.40;99.90
14182;DHT22;7171;50.936;6.764;2024-02-28T15:58:51;12.40;99.90